Time;durP1;ratioP1;P1;durP2;ratioP2;P2;SDS_P1;SDS_P2;PMS_P1;PMS_P2;Temp;Humidity;BMP_temperature;BMP_pressure;BME280_temperature;BME280_humidity;BME280_pressure;Samples;Min_cycle;Max_cycle;Signal;HPM_P1;HPM_P2
2022/11/08 06:57:52;;;;;;;2.00;1.05;;;;;;;;;;10511035;27;20452;-82
2022/11/08 07:02:53;;;;;;;3.10;1.55;;;;;;;;;;10501550;28;20017;-83
2022/11/08 07:07:56;;;;;;;4.15;1.55;;;;;;;;;;10461940;28;20136;-82
2022/11/08 07:13:07;;;;;;;2.10;1.33;;;;;;;;;;10463450;28;20045;-83
2022/11/08 07:18:12;;;;;;;2.75;1.30;;;;;;;;;;10462498;28;20115;-83
2022/11/08 07:23:13;;;;;;;1.80;1.25;;;;;;;;;;10463360;28;20056;-83
2022/11/08 07:28:16;;;;;;;2.08;1.30;;;;;;;;;;10460371;28;20017;-83
2022/11/08 07:33:43;;;;;;;8.68;6.70;;;;;;;;;;10459979;28;20044;-83
2022/11/08 07:38:45;;;;;;;3.40;1.70;;;;;;;;;;10452977;28;20522;-83
2022/11/08 07:43:48;;;;;;;2.38;1.10;;;;;;;;;;10456386;28;20036;-84
2022/11/08 07:48:50;;;;;;;2.78;1.05;;;;;;;;;;10462582;28;20034;-83
2022/11/08 07:54:00;;;;;;;3.92;1.45;;;;;;;;;;10473294;28;20041;-83
2022/11/08 07:59:21;;;;;;;2.30;1.02;;;;;;;;;;10482564;28;20039;-82
2022/11/08 08:04:22;;;;;;;;;;;;;;;;;;10459309;28;20021;-80
2022/11/08 08:09:24;;;;;;;2.70;1.10;;;;;;;;;;10433022;28;19909;-79
2022/11/08 08:14:24;;;;;;;2.45;1.10;;;;;;;;;;10430682;28;20033;-81
2022/11/08 08:19:25;;;;;;;;;;;;;;;;;;10429665;28;20067;-79
2022/11/08 08:24:26;;;;;;;1.40;1.02;;;;;;;;;;10429129;28;21042;-80
2022/11/08 08:29:30;;;;;;;1.88;1.27;;;;;;;;;;10429194;28;20120;-82
2022/11/08 08:34:31;;;;;;;3.53;2.35;;;;;;;;;;10431039;28;20083;-80
2022/11/08 08:39:33;;;;;;;3.42;1.67;;;;;;;;;;10430741;28;20110;-80
2022/11/08 08:44:34;;;;;;;3.47;1.35;;;;;;;;;;10430121;28;20031;-80
2022/11/08 08:49:35;;;;;;;3.17;1.50;;;;;;;;;;10428568;28;20546;-78
2022/11/08 08:54:36;;;;;;;2.45;1.20;;;;;;;;;;10427806;28;20065;-82
2022/11/08 08:59:37;;;;;;;2.75;1.40;;;;;;;;;;10427908;28;20132;-82
2022/11/08 09:04:39;;;;;;;2.58;1.63;;;;;;;;;;10429949;28;20070;-81
2022/11/08 09:09:40;;;;;;;2.88;1.30;;;;;;;;;;10435252;28;20124;-81
2022/11/08 09:14:41;;;;;;;2.85;1.30;;;;;;;;;;10430353;28;20049;-82
2022/11/08 09:19:42;;;;;;;6.00;1.70;;;;;;;;;;10428642;28;20033;-81
2022/11/08 09:24:43;;;;;;;4.28;1.60;;;;;;;;;;10427566;28;20029;-82
2022/11/08 09:29:44;;;;;;;;;;;;;;;;;;10429418;28;20029;-80
2022/11/08 09:34:45;;;;;;;7.63;1.80;;;;;;;;;;10433154;28;19972;-82
2022/11/08 09:39:46;;;;;;;3.78;1.40;;;;;;;;;;10432984;28;20438;-82
2022/11/08 09:44:54;;;;;;;4.47;1.65;;;;;;;;;;10428645;28;20033;-81
2022/11/08 09:50:14;;;;;;;3.50;1.60;;;;;;;;;;10428156;28;20448;-82
2022/11/08 09:55:44;;;;;;;4.00;1.65;;;;;;;;;;10430074;28;20091;-83
2022/11/08 10:00:49;;;;;;;5.18;1.80;;;;;;;;;;10426683;28;20434;-84
2022/11/08 10:06:12;;;;;;;3.75;1.23;;;;;;;;;;10423319;28;20074;-83
2022/11/08 10:11:35;;;;;;;6.05;1.90;;;;;;;;;;10426271;28;20028;-84
2022/11/08 10:16:57;;;;;;;3.15;1.55;;;;;;;;;;10426862;28;20033;-83
2022/11/08 10:22:17;;;;;;;4.35;2.10;;;;;;;;;;10424443;28;20116;-84
2022/11/08 10:27:24;;;;;;;8.23;5.32;;;;;;;;;;10424315;28;20033;-83
2022/11/08 10:32:25;;;;;;;5.78;2.30;;;;;;;;;;10424080;28;20035;-83
2022/11/08 10:37:33;;;;;;;3.80;2.03;;;;;;;;;;10427754;28;20045;-84
2022/11/08 10:42:35;;;;;;;3.72;1.70;;;;;;;;;;10432862;28;20017;-83
2022/11/08 10:47:54;;;;;;;1.70;1.33;;;;;;;;;;10442094;28;20034;-83
2022/11/08 10:52:59;;;;;;;3.50;1.67;;;;;;;;;;10429584;28;20137;-84
2022/11/08 10:58:33;;;;;;;5.68;3.78;;;;;;;;;;10427828;28;20059;-84
2022/11/08 11:03:34;;;;;;;2.63;1.40;;;;;;;;;;10414916;28;20390;-84
2022/11/08 11:08:47;;;;;;;2.50;1.40;;;;;;;;;;10418663;28;20018;-83
2022/11/08 11:14:14;;;;;;;2.97;1.63;;;;;;;;;;10421626;28;20034;-84
2022/11/08 11:19:15;;;;;;;5.07;1.70;;;;;;;;;;10422549;28;20061;-83
2022/11/08 11:24:17;;;;;;;5.60;1.80;;;;;;;;;;10426875;28;20029;-83
2022/11/08 11:29:20;;;;;;;3.08;1.67;;;;;;;;;;10421642;28;20116;-83
2022/11/08 11:34:21;;;;;;;3.00;1.75;;;;;;;;;;10420713;28;20037;-81
2022/11/08 11:39:22;;;;;;;;;;;;;;;;;;10427242;28;20117;-82
2022/11/08 11:44:35;;;;;;;2.72;1.50;;;;;;;;;;10452996;28;19951;-82
2022/11/08 11:49:36;;;;;;;3.92;1.80;;;;;;;;;;10437657;28;20025;-82
2022/11/08 11:54:40;;;;;;;4.10;1.70;;;;;;;;;;10432648;28;20132;-82
2022/11/08 11:59:57;;;;;;;4.47;2.22;;;;;;;;;;10432616;28;20111;-82
2022/11/08 12:05:03;;;;;;;5.63;1.80;;;;;;;;;;10433402;28;20037;-82
2022/11/08 12:10:10;;;;;;;7.57;1.92;;;;;;;;;;10432628;28;20032;-82
2022/11/08 12:15:18;;;;;;;3.03;1.85;;;;;;;;;;10433331;28;20029;-81
2022/11/08 12:20:25;;;;;;;4.07;1.98;;;;;;;;;;10432588;28;20471;-82
2022/11/08 12:25:48;;;;;;;2.78;1.77;;;;;;;;;;10428150;28;20030;-82
2022/11/08 12:31:00;;;;;;;2.30;1.70;;;;;;;;;;10429283;28;20116;-81
2022/11/08 12:36:10;;;;;;;3.00;1.70;;;;;;;;;;10457855;28;20033;-81
2022/11/08 12:41:11;;;;;;;2.28;1.60;;;;;;;;;;10427687;28;20039;-81
2022/11/08 12:46:17;;;;;;;2.83;1.73;;;;;;;;;;10431081;28;20037;-83
2022/11/08 12:51:37;;;;;;;4.20;1.88;;;;;;;;;;10429146;28;20017;-83
2022/11/08 12:56:43;;;;;;;3.20;1.80;;;;;;;;;;10428732;28;20044;-82
2022/11/08 13:01:44;;;;;;;3.10;1.60;;;;;;;;;;10429224;28;20112;-82
2022/11/08 13:06:50;;;;;;;2.53;1.67;;;;;;;;;;10431211;28;20033;-82
2022/11/08 13:12:00;;;;;;;2.72;1.58;;;;;;;;;;10429859;28;20026;-81
2022/11/08 13:17:08;;;;;;;3.78;1.52;;;;;;;;;;10430270;28;20089;-81
2022/11/08 13:22:32;;;;;;;5.32;2.50;;;;;;;;;;10435467;28;20160;-81
2022/11/08 13:27:43;;;;;;;2.80;1.98;;;;;;;;;;10430802;28;20487;-82
2022/11/08 13:32:44;;;;;;;;;;;;;;;;;;10430813;28;20057;-81
2022/11/08 13:38:04;;;;;;;4.15;1.60;;;;;;;;;;10430895;28;19909;-83
2022/11/08 13:43:49;;;;;;;3.55;1.50;;;;;;;;;;10428980;28;20120;-81
2022/11/08 13:49:04;;;;;;;4.07;1.70;;;;;;;;;;10383436;28;20046;-82
2022/11/08 13:54:20;;;;;;;3.72;1.80;;;;;;;;;;10420369;28;20045;-80
2022/11/08 13:59:30;;;;;;;4.50;2.00;;;;;;;;;;10429506;28;20041;-80
2022/11/08 14:04:39;;;;;;;6.23;1.70;;;;;;;;;;10426848;28;20506;-81
2022/11/08 14:09:52;;;;;;;3.83;1.95;;;;;;;;;;10429896;28;20117;-82
2022/11/08 14:15:06;;;;;;;3.50;1.80;;;;;;;;;;10427939;28;20557;-82
2022/11/08 14:20:26;;;;;;;3.80;1.67;;;;;;;;;;10428046;28;20036;-82
2022/11/08 14:25:49;;;;;;;4.40;1.75;;;;;;;;;;10433785;28;20044;-82
2022/11/08 14:30:50;;;;;;;3.83;1.80;;;;;;;;;;10439663;28;20037;-83
2022/11/08 14:35:57;;;;;;;5.18;1.80;;;;;;;;;;10426196;28;20053;-83
2022/11/08 14:40:59;;;;;;;4.28;1.80;;;;;;;;;;10428611;28;20026;-83
2022/11/08 14:46:15;;;;;;;7.65;2.05;;;;;;;;;;10429607;28;20053;-82
2022/11/08 14:51:16;;;;;;;3.47;1.70;;;;;;;;;;10432807;28;20017;-82
2022/11/08 14:56:23;;;;;;;3.10;1.75;;;;;;;;;;10430311;28;20060;-83
2022/11/08 15:01:25;;;;;;;4.05;1.70;;;;;;;;;;10432300;28;20076;-83
2022/11/08 15:06:31;;;;;;;3.22;1.80;;;;;;;;;;10427969;28;20029;-82
2022/11/08 15:11:34;;;;;;;3.83;1.90;;;;;;;;;;10429948;28;20017;-82
2022/11/08 15:16:40;;;;;;;2.92;1.58;;;;;;;;;;10431946;28;20053;-83
2022/11/08 15:21:47;;;;;;;2.15;1.83;;;;;;;;;;10435617;28;20029;-83
2022/11/08 15:27:05;;;;;;;5.55;2.00;;;;;;;;;;10438291;28;20029;-84
2022/11/08 15:32:16;;;;;;;3.60;2.53;;;;;;;;;;10433522;28;20468;-83
2022/11/08 15:37:19;;;;;;;3.88;1.65;;;;;;;;;;10433187;28;20029;-83
2022/11/08 15:42:21;;;;;;;3.95;1.67;;;;;;;;;;10436633;28;20026;-83
2022/11/08 15:47:36;;;;;;;4.13;1.63;;;;;;;;;;10439216;28;20041;-82
2022/11/08 15:52:42;;;;;;;3.15;1.60;;;;;;;;;;10441311;28;20056;-82
2022/11/08 15:57:46;;;;;;;4.03;1.63;;;;;;;;;;10441006;28;20033;-82
2022/11/08 16:02:48;;;;;;;3.38;1.65;;;;;;;;;;10439169;28;20084;-82
2022/11/08 16:07:49;;;;;;;4.10;1.75;;;;;;;;;;10434471;28;20044;-83
2022/11/08 16:12:50;;;;;;;3.13;1.70;;;;;;;;;;10436261;28;20072;-82
2022/11/08 16:17:51;;;;;;;4.95;1.90;;;;;;;;;;10449789;28;20049;-81
2022/11/08 16:22:53;;;;;;;3.67;1.90;;;;;;;;;;10440006;28;20503;-81
2022/11/08 16:27:58;;;;;;;4.78;1.40;;;;;;;;;;10433308;28;20456;-82
2022/11/08 16:33:00;;;;;;;4.25;2.28;;;;;;;;;;10434209;28;20049;-82
2022/11/08 16:38:01;;;;;;;4.22;1.85;;;;;;;;;;10432298;28;20033;-81
2022/11/08 16:43:02;;;;;;;2.60;1.73;;;;;;;;;;10431241;28;20555;-82
2022/11/08 16:48:04;;;;;;;3.05;1.63;;;;;;;;;;10432014;28;20040;-82
2022/11/08 16:53:09;;;;;;;5.03;1.80;;;;;;;;;;10432483;28;20101;-82
2022/11/08 16:58:10;;;;;;;3.78;1.73;;;;;;;;;;10430588;28;20037;-82
2022/11/08 17:03:13;;;;;;;2.78;1.65;;;;;;;;;;10431629;28;20061;-81
2022/11/08 17:08:14;;;;;;;3.55;1.77;;;;;;;;;;10431063;28;20085;-82
2022/11/08 17:13:16;;;;;;;7.80;1.90;;;;;;;;;;10428973;28;20083;-82
2022/11/08 17:18:19;;;;;;;4.97;2.28;;;;;;;;;;10430053;28;20607;-81
2022/11/08 17:23:22;;;;;;;4.00;1.80;;;;;;;;;;10430187;28;20022;-81
2022/11/08 17:28:23;;;;;;;4.50;1.75;;;;;;;;;;10405766;22;20104;-79
2022/11/08 17:33:24;;;;;;;8.38;2.20;;;;;;;;;;10381461;28;20092;-80
2022/11/08 17:38:28;;;;;;;3.95;2.10;;;;;;;;;;10356023;28;20471;-81
2022/11/08 17:43:36;;;;;;;4.68;2.00;;;;;;;;;;10341003;28;20085;-81
2022/11/08 17:48:49;;;;;;;3.47;2.08;;;;;;;;;;10340578;28;20022;-81
2022/11/08 17:53:52;;;;;;;5.10;1.88;;;;;;;;;;10343815;28;20062;-80
2022/11/08 17:58:55;;;;;;;4.78;2.53;;;;;;;;;;10339713;28;20387;-80
2022/11/08 18:03:56;;;;;;;5.53;2.53;;;;;;;;;;10343209;28;20084;-81
2022/11/08 18:08:57;;;;;;;5.55;2.53;;;;;;;;;;10340613;28;20118;-81
2022/11/08 18:13:58;;;;;;;;;;;;;;;;;;10343199;28;20033;-81
2022/11/08 18:19:01;;;;;;;5.20;2.55;;;;;;;;;;10340827;28;19920;-81
2022/11/08 18:24:02;;;;;;;;;;;;;;;;;;10346536;28;20112;-81
2022/11/08 18:29:04;;;;;;;;;;;;;;;;;;10340268;28;19914;-81
2022/11/08 18:34:06;;;;;;;;;;;;;;;;;;10340448;28;19905;-81
2022/11/08 18:39:19;;;;;;;4.20;2.25;;;;;;;;;;10341068;28;19960;-81
2022/11/08 18:44:30;;;;;;;6.43;2.75;;;;;;;;;;10339445;28;20560;-81
2022/11/08 18:49:40;;;;;;;3.97;2.30;;;;;;;;;;10326255;28;20035;-81
2022/11/08 19:00:11;;;;;;;3.95;2.50;;;;;;;;;;10340692;28;20038;-81
2022/11/08 19:05:14;;;;;;;6.30;2.25;;;;;;;;;;10338631;28;20022;-81
2022/11/08 19:10:15;;;;;;;3.45;2.00;;;;;;;;;;10340933;28;20053;-81
2022/11/08 19:15:18;;;;;;;3.00;2.15;;;;;;;;;;10342952;28;20030;-81
2022/11/08 19:20:22;;;;;;;4.05;2.60;;;;;;;;;;10355004;28;20113;-81
2022/11/08 19:25:24;;;;;;;3.28;1.75;;;;;;;;;;10337305;28;20412;-80
2022/11/08 19:30:29;;;;;;;2.72;1.63;;;;;;;;;;10336139;28;20088;-80
2022/11/08 19:35:32;;;;;;;3.83;1.83;;;;;;;;;;10335177;28;20104;-80
2022/11/08 19:40:37;;;;;;;2.97;1.80;;;;;;;;;;10337649;28;20035;-79
2022/11/08 19:45:38;;;;;;;5.18;1.85;;;;;;;;;;10335213;28;20031;-79
2022/11/08 19:50:43;;;;;;;3.15;2.08;;;;;;;;;;10335341;28;20496;-79
2022/11/08 19:55:48;;;;;;;3.45;2.22;;;;;;;;;;10337812;28;20068;-80
2022/11/08 20:00:49;;;;;;;;;;;;;;;;;;10336581;28;20031;-79
2022/11/08 20:05:50;;;;;;;;;;;;;;;;;;10346732;28;19916;-80
2022/11/08 20:10:53;;;;;;;3.05;1.88;;;;;;;;;;10344823;28;19910;-80
2022/11/08 20:15:54;;;;;;;3.45;1.88;;;;;;;;;;10343255;28;20022;-80
2022/11/08 20:21:01;;;;;;;5.38;2.10;;;;;;;;;;10344007;28;20030;-79
